createdAt,value
2019-03-24T00:05:17.291Z,0.00
2019-03-24T00:11:16.559Z,0.00
2019-03-24T00:17:16.262Z,0.00
2019-03-24T00:23:16.262Z,0.00
2019-03-24T00:29:16.287Z,0.00
2019-03-24T00:35:16.243Z,0.00
2019-03-24T00:41:16.260Z,0.00
2019-03-24T00:47:16.285Z,0.00
2019-03-24T00:53:16.332Z,0.00
2019-03-24T00:59:16.388Z,0.00
2019-03-24T01:08:15.242Z,0.00
2019-03-24T01:14:15.247Z,0.00
2019-03-24T01:20:15.546Z,0.00
2019-03-24T01:26:15.232Z,0.00
2019-03-24T01:32:15.298Z,0.00
2019-03-24T01:38:14.766Z,0.00
2019-03-24T01:48:55.332Z,0.00
2019-03-24T01:54:55.323Z,0.00
2019-03-24T02:00:55.321Z,0.04
2019-03-24T02:06:55.348Z,0.00
2019-03-24T02:12:55.399Z,0.00
2019-03-24T02:18:55.353Z,0.01
2019-03-24T02:24:55.358Z,0.00
2019-03-24T02:30:55.349Z,0.00
2019-03-24T02:36:55.386Z,0.00
2019-03-24T02:42:55.401Z,0.00
2019-03-24T02:48:55.384Z,0.01
2019-03-24T02:54:55.381Z,0.00
2019-03-24T03:00:58.431Z,0.00
2019-03-24T03:06:55.392Z,0.01
2019-03-24T03:12:55.358Z,0.00
2019-03-24T03:18:55.350Z,0.00
2019-03-24T03:24:55.392Z,0.00
2019-03-24T03:30:55.383Z,0.00
2019-03-24T03:36:55.368Z,0.01
2019-03-24T03:42:55.374Z,0.00
2019-03-24T03:48:55.366Z,0.00
2019-03-24T03:54:55.392Z,0.03
2019-03-24T04:00:55.343Z,0.01
2019-03-24T04:06:55.374Z,0.00
2019-03-24T04:12:55.381Z,0.00
2019-03-24T04:18:55.357Z,0.00
2019-03-24T04:24:55.385Z,0.00
2019-03-24T04:30:55.367Z,0.00
2019-03-24T04:36:55.368Z,0.00
2019-03-24T04:42:55.377Z,0.00
2019-03-24T04:48:55.368Z,0.00
2019-03-24T04:54:55.388Z,0.00
2019-03-24T05:00:56.092Z,0.00
2019-03-24T05:06:55.424Z,0.00
2019-03-24T05:12:55.375Z,0.00
2019-03-24T05:18:55.387Z,0.00
2019-03-24T05:24:55.400Z,0.00
2019-03-24T05:30:55.383Z,0.00
2019-03-24T05:36:55.412Z,0.00
2019-03-24T05:42:55.461Z,0.00
2019-03-24T05:48:55.432Z,0.01
2019-03-24T05:54:55.433Z,0.00
2019-03-24T06:00:55.401Z,0.08
2019-03-24T06:06:55.402Z,0.08
2019-03-24T06:12:55.394Z,0.01
2019-03-24T06:18:55.382Z,0.00
2019-03-24T06:24:55.421Z,0.02
2019-03-24T06:30:55.418Z,0.00
2019-03-24T06:36:55.415Z,0.07
2019-03-24T06:42:55.382Z,0.16
2019-03-24T06:48:55.435Z,0.07
2019-03-24T06:54:55.516Z,0.14
2019-03-24T07:00:55.409Z,0.19
2019-03-24T07:06:55.417Z,0.47
2019-03-24T07:12:55.430Z,0.39
2019-03-24T07:18:55.447Z,0.41
2019-03-24T07:24:55.529Z,0.56
2019-03-24T07:30:55.420Z,1.10
2019-03-24T07:36:55.472Z,1.15
2019-03-24T07:42:55.437Z,0.64
2019-03-24T07:48:55.476Z,1.13
2019-03-24T07:54:55.429Z,0.95
2019-03-24T08:00:55.434Z,1.08
2019-03-24T08:06:55.495Z,0.63
2019-03-24T08:12:55.665Z,0.66
2019-03-24T08:18:55.467Z,0.70
2019-03-24T08:24:55.484Z,0.64
2019-03-24T08:30:55.538Z,0.70
2019-03-24T08:36:55.519Z,2.03
2019-03-24T08:42:55.451Z,1.47
2019-03-24T08:48:55.512Z,1.03
2019-03-24T08:54:55.498Z,1.25
2019-03-24T09:00:55.593Z,1.87
2019-03-24T09:06:55.491Z,1.04
2019-03-24T09:12:55.624Z,0.66
2019-03-24T09:18:55.486Z,0.57
2019-03-24T09:24:55.515Z,0.13
2019-03-24T09:30:55.503Z,1.10
2019-03-24T09:36:55.479Z,0.69
2019-03-24T09:42:55.478Z,0.38
2019-03-24T09:49:03.151Z,0.38
2019-03-24T09:54:55.495Z,0.67
2019-03-24T10:00:55.543Z,0.38
2019-03-24T10:06:55.655Z,0.54
2019-03-24T10:12:55.611Z,0.06
2019-03-24T10:18:55.669Z,1.05
2019-03-24T10:24:55.568Z,0.70
2019-03-24T10:30:55.642Z,0.54
2019-03-24T10:36:55.565Z,0.81
2019-03-24T10:42:55.627Z,0.94
2019-03-24T10:48:55.536Z,0.93
2019-03-24T10:54:55.542Z,1.21
2019-03-24T11:00:55.620Z,1.14
2019-03-24T11:06:55.644Z,1.21
2019-03-24T11:12:55.619Z,0.95
2019-03-24T11:18:55.573Z,0.87
2019-03-24T11:24:55.599Z,1.01
2019-03-24T11:30:55.617Z,1.44
2019-03-24T11:36:55.578Z,0.44
2019-03-24T11:42:56.252Z,0.80
2019-03-24T11:48:55.590Z,0.51
2019-03-24T11:54:55.594Z,0.72
2019-03-24T12:00:55.604Z,0.35
2019-03-24T12:06:55.664Z,1.00
2019-03-24T12:12:56.431Z,0.66
2019-03-24T12:18:55.608Z,0.87
2019-03-24T12:24:55.617Z,0.42
2019-03-24T12:30:55.617Z,0.33
2019-03-24T12:36:55.618Z,0.17
2019-03-24T12:42:55.666Z,1.25
2019-03-24T12:48:55.678Z,0.46
2019-03-24T12:59:53.261Z,0.46
2019-03-24T13:05:53.183Z,1.43
2019-03-24T13:11:53.487Z,0.90
2019-03-24T13:17:53.194Z,1.39
2019-03-24T13:23:53.217Z,1.14
2019-03-24T13:29:53.203Z,1.32
2019-03-24T13:35:53.186Z,1.18
2019-03-24T13:41:53.254Z,1.63
2019-03-24T13:47:53.240Z,1.17
2019-03-24T13:53:53.337Z,1.78
2019-03-24T13:59:53.281Z,1.21
2019-03-24T14:05:53.243Z,1.29
2019-03-24T14:11:53.302Z,1.39
2019-03-24T14:17:53.241Z,1.29
2019-03-24T14:23:53.358Z,1.59
2019-03-24T14:29:53.293Z,0.79
2019-03-24T14:35:54.373Z,0.89
2019-03-24T14:41:53.314Z,1.26
2019-03-24T14:47:53.266Z,1.76
2019-03-24T14:53:53.360Z,1.67
2019-03-24T14:59:53.374Z,1.33
2019-03-24T15:05:53.269Z,1.27
2019-03-24T15:11:53.360Z,1.34
2019-03-24T15:17:53.390Z,1.11
2019-03-24T15:23:53.294Z,0.95
2019-03-24T15:29:53.342Z,1.36
2019-03-24T15:35:53.319Z,1.30
2019-03-24T15:41:53.342Z,1.50
2019-03-24T15:47:53.326Z,0.94
2019-03-24T15:53:53.429Z,0.95
2019-03-24T15:59:53.389Z,1.17
2019-03-24T16:05:53.349Z,1.36
2019-03-24T16:11:53.373Z,0.54
2019-03-24T16:17:53.369Z,0.65
2019-03-24T16:23:54.678Z,0.86
2019-03-24T16:29:53.339Z,0.86
2019-03-24T16:35:53.409Z,0.79
2019-03-24T16:41:53.417Z,0.63
2019-03-24T16:47:53.368Z,0.94
2019-03-24T16:53:53.360Z,0.95
2019-03-24T16:59:53.370Z,1.06
2019-03-24T17:05:53.372Z,1.49
2019-03-24T17:11:53.390Z,1.15
2019-03-24T17:17:53.392Z,0.98
2019-03-24T17:23:53.483Z,1.01
2019-03-24T17:29:53.355Z,0.95
2019-03-24T17:35:53.501Z,0.36
2019-03-24T17:41:53.402Z,1.25
2019-03-24T17:47:53.391Z,1.52
2019-03-24T17:53:54.457Z,1.99
2019-03-24T17:59:53.444Z,1.56
2019-03-24T18:05:54.495Z,1.63
2019-03-24T18:11:53.403Z,1.25
2019-03-24T18:17:53.470Z,1.63
2019-03-24T18:23:53.403Z,2.03
2019-03-24T18:29:53.453Z,1.30
2019-03-24T18:35:53.596Z,1.04
2019-03-24T18:41:53.546Z,0.61
2019-03-24T18:47:53.707Z,0.98
2019-03-24T18:53:53.445Z,0.73
2019-03-24T18:59:53.575Z,0.50
2019-03-24T19:05:53.458Z,0.08
2019-03-24T19:11:53.440Z,0.00
2019-03-24T19:17:53.476Z,0.00
2019-03-24T19:23:55.953Z,0.05
2019-03-24T19:29:54.914Z,0.00
2019-03-24T19:35:53.538Z,0.00
2019-03-24T19:41:53.465Z,0.00
2019-03-24T19:47:53.495Z,0.00
2019-03-24T19:53:53.494Z,0.00
2019-03-24T19:59:53.587Z,0.00
2019-03-24T20:05:53.522Z,0.00
2019-03-24T20:11:53.642Z,0.00
2019-03-24T20:17:53.585Z,0.00
2019-03-24T20:23:53.506Z,0.00
2019-03-24T20:29:53.744Z,0.00
2019-03-24T20:35:53.578Z,0.01
2019-03-24T20:41:53.473Z,0.00
2019-03-24T20:47:53.705Z,0.01
2019-03-24T20:53:53.761Z,0.00
2019-03-24T20:59:53.551Z,0.00
2019-03-24T21:05:53.949Z,0.06
2019-03-24T21:11:54.169Z,0.00
2019-03-24T21:17:53.815Z,0.00
2019-03-24T21:23:53.558Z,0.00
2019-03-24T21:29:53.618Z,0.00
2019-03-24T21:35:53.562Z,0.00
2019-03-24T21:41:55.068Z,0.00
2019-03-24T21:47:53.774Z,0.03
2019-03-24T21:53:55.067Z,0.00
2019-03-24T21:59:53.690Z,0.00
2019-03-24T22:05:53.556Z,0.00
2019-03-24T22:11:53.610Z,0.00
2019-03-24T22:17:53.585Z,0.00
2019-03-24T22:23:53.615Z,0.00
2019-03-24T22:29:53.615Z,0.00
2019-03-24T22:35:53.699Z,0.00
2019-03-24T22:41:53.663Z,0.00
2019-03-24T22:47:53.704Z,0.04
2019-03-24T22:54:02.954Z,0.16
2019-03-24T22:59:53.698Z,0.42
2019-03-24T23:05:53.564Z,0.40
2019-03-24T23:11:55.140Z,0.24
2019-03-24T23:17:53.643Z,0.34
2019-03-24T23:23:53.629Z,0.26
2019-03-24T23:29:53.636Z,0.26
2019-03-24T23:35:53.618Z,0.11
2019-03-24T23:41:53.622Z,0.30
2019-03-24T23:47:53.740Z,0.18
2019-03-24T23:53:54.982Z,0.22
2019-03-24T23:59:53.617Z,0.23
